createdAt,value
2018-10-18T00:00:14.467Z,81.68
2018-10-18T00:00:54.766Z,81.59
2018-10-18T00:03:07.613Z,81.97
2018-10-18T00:03:47.786Z,81.87
2018-10-18T00:04:28.204Z,81.68
2018-10-18T00:05:08.816Z,81.68
2018-10-18T00:05:50.207Z,81.74
2018-10-18T00:06:31.026Z,81.68
2018-10-18T00:13:55.967Z,82.07
2018-10-18T00:19:02.682Z,82.12
2018-10-18T00:19:42.277Z,82.12
2018-10-18T00:20:22.773Z,81.74
2018-10-18T00:21:03.340Z,81.64
2018-10-18T00:21:43.764Z,81.64
2018-10-18T00:22:24.231Z,81.64
2018-10-18T00:23:04.608Z,81.84
2018-10-18T00:23:45.642Z,81.59
2018-10-18T00:24:25.510Z,82.31
2018-10-18T00:25:06.046Z,82.41
2018-10-18T00:25:46.399Z,82.12
2018-10-18T00:26:26.755Z,81.74
2018-10-18T00:27:07.447Z,81.93
2018-10-18T00:27:47.675Z,82.41
2018-10-18T00:28:28.057Z,82.98
2018-10-18T00:29:08.452Z,82.89
2018-10-18T00:29:48.837Z,82.89
2018-10-18T00:30:29.364Z,82.6
2018-10-18T00:31:09.707Z,83.18
2018-10-18T00:31:50.192Z,82.98
2018-10-18T00:32:30.572Z,83.27
2018-10-18T00:33:11.028Z,83.27
2018-10-18T00:33:51.761Z,82.7
2018-10-18T00:34:32.171Z,83.27
2018-10-18T00:35:13.395Z,82.79
2018-10-18T00:35:53.998Z,83.47
2018-10-18T00:36:34.387Z,82.51
2018-10-18T00:37:14.784Z,82.79
2018-10-18T00:37:55.297Z,82.7
2018-10-18T00:38:35.617Z,82.7
2018-10-18T00:39:15.977Z,82.6
2018-10-18T00:39:56.407Z,82.51
2018-10-18T00:40:36.853Z,82.79
2018-10-18T00:41:17.325Z,83.27
2018-10-18T00:41:57.899Z,83.18
2018-10-18T00:42:38.317Z,83.27
2018-10-18T00:43:20.133Z,82.51
2018-10-18T00:44:00.728Z,83.27
2018-10-18T00:44:41.013Z,83.37
2018-10-18T00:45:21.428Z,83.27
2018-10-18T00:46:02.366Z,83.47
2018-10-18T00:46:43.048Z,82.51
2018-10-18T00:47:25.087Z,83.47
2018-10-18T00:48:04.915Z,82.6
2018-10-18T00:48:45.213Z,82.41
2018-10-18T00:49:25.759Z,82.79
2018-10-18T00:50:06.065Z,83.27
2018-10-18T00:50:46.679Z,83.47
2018-10-18T00:51:27.339Z,83.37
2018-10-18T00:52:07.965Z,83.47
2018-10-18T00:52:48.445Z,83.75
2018-10-18T00:53:28.832Z,83.75
2018-10-18T00:54:09.351Z,84.04
2018-10-18T00:54:50.736Z,84.23
2018-10-18T00:55:33.560Z,83.85
2018-10-18T00:56:14.663Z,84.38
2018-10-18T00:56:54.882Z,84.38
2018-10-18T00:57:35.454Z,84.28
2018-10-18T00:58:16.667Z,84.48
2018-10-18T00:58:57.066Z,84.95
2018-10-18T00:59:37.525Z,84.77
2018-10-18T01:00:18.078Z,85.05
2018-10-18T01:00:58.468Z,85.25
2018-10-18T01:01:39.054Z,85.53
2018-10-18T01:02:19.713Z,85.34
2018-10-18T01:02:59.981Z,85.15
2018-10-18T01:03:40.387Z,85.44
2018-10-18T01:04:20.864Z,85.05
2018-10-18T01:05:01.205Z,85.53
2018-10-18T01:05:41.805Z,85.72
2018-10-18T01:06:22.193Z,85.44
2018-10-18T01:07:02.687Z,85.53
2018-10-18T01:07:43.086Z,85.53
2018-10-18T01:08:23.805Z,85.05
2018-10-18T01:09:04.166Z,85.25
2018-10-18T01:09:44.738Z,85.92
2018-10-18T03:07:34.784Z,89.71
2018-10-18T03:09:41.942Z,89.51
2018-10-18T03:10:22.509Z,89.61
2018-10-18T03:11:06.030Z,89.42
2018-10-18T03:11:46.534Z,89.9
2018-10-18T03:12:26.853Z,90.09
2018-10-18T03:13:07.285Z,90.09
2018-10-18T03:13:48.117Z,90.38
2018-10-18T03:14:28.590Z,89.71
2018-10-18T03:15:09.886Z,89.71
2018-10-18T03:15:50.250Z,89.61
2018-10-18T03:16:33.445Z,89.8
2018-10-18T03:17:11.802Z,89.8
2018-10-18T03:17:52.392Z,90.28
2018-10-18T03:18:32.634Z,90
2018-10-18T03:19:13.048Z,90.19
2018-10-18T03:19:53.465Z,90.67
2018-10-18T03:20:34.299Z,90.91
2018-10-18T03:21:14.597Z,91.05
2018-10-18T03:21:55.027Z,90.76
2018-10-18T03:22:35.451Z,91.05
2018-10-18T03:23:16.210Z,90.76
2018-10-18T03:23:56.445Z,90.76
2018-10-18T03:24:37.079Z,90.76
2018-10-18T03:25:17.428Z,91.05
2018-10-18T03:25:57.885Z,90.95
2018-10-18T03:26:38.263Z,90.86
2018-10-18T03:27:18.994Z,90.76
2018-10-18T03:30:03.013Z,90.28
2018-10-18T03:30:43.447Z,90
2018-10-18T03:31:23.888Z,90.28
2018-10-18T03:32:04.336Z,89.71
2018-10-18T03:32:44.725Z,89.8
2018-10-18T03:33:25.120Z,90
2018-10-18T03:34:07.669Z,90
2018-10-18T03:34:46.482Z,89.71
2018-10-18T03:35:26.882Z,89.23
2018-10-18T03:36:07.381Z,90.19
2018-10-18T03:36:47.750Z,89.56
2018-10-18T03:37:28.656Z,89.85
2018-10-18T03:38:09.093Z,89.56
2018-10-18T03:38:50.025Z,89.23
2018-10-18T03:39:30.502Z,89.71
2018-10-18T03:40:11.036Z,89.08
2018-10-18T03:40:52.486Z,89.18
2018-10-18T03:41:33.054Z,89.75
2018-10-18T03:42:14.464Z,89.27
2018-10-18T03:47:05.344Z,89.8
2018-10-18T03:47:45.665Z,90.28
2018-10-18T03:48:25.964Z,90.38
2018-10-18T03:49:35.947Z,90.09
2018-10-18T03:50:16.397Z,90
2018-10-18T03:50:56.812Z,90
2018-10-18T03:51:37.330Z,90.19
2018-10-18T03:52:17.715Z,90.28
2018-10-18T03:52:58.107Z,89.61
2018-10-18T03:54:48.143Z,90.04
2018-10-18T03:55:33.750Z,90.14
2018-10-18T03:56:14.128Z,90.09
2018-10-18T03:56:54.513Z,90.09
2018-10-18T03:57:34.969Z,90.09
2018-10-18T03:58:15.552Z,89.8
2018-10-18T03:58:55.767Z,90.19
2018-10-18T03:59:36.233Z,90.09
2018-10-18T04:00:16.801Z,90.38
2018-10-18T04:00:57.060Z,90.19
2018-10-18T04:01:37.474Z,90.14
2018-10-18T04:02:17.920Z,90.14
2018-10-18T04:02:58.456Z,90
2018-10-18T04:03:38.789Z,90.38
2018-10-18T04:04:19.163Z,90.04
2018-10-18T04:04:59.578Z,89.65
2018-10-18T04:05:40.028Z,89.27
2018-10-18T04:06:20.573Z,89.65
2018-10-18T04:07:00.917Z,89.75
2018-10-18T04:07:41.288Z,89.27
2018-10-18T04:08:21.786Z,88.98
2018-10-18T04:09:02.101Z,89.27
2018-10-18T04:09:42.532Z,89.18
2018-10-18T04:10:22.973Z,89.47
2018-10-18T04:11:03.683Z,88.41
2018-10-18T04:11:43.953Z,88.79
2018-10-18T04:12:24.371Z,89.08
2018-10-18T04:13:05.244Z,88.98
2018-10-18T04:13:45.614Z,88.89
2018-10-18T04:14:25.980Z,88.7
2018-10-18T04:15:06.406Z,88.79
2018-10-18T04:15:47.050Z,88.89
2018-10-18T04:16:28.179Z,88.79
2018-10-18T04:17:08.494Z,88.7
2018-10-18T04:17:48.937Z,88.6
2018-10-18T04:18:29.472Z,88.51
2018-10-18T04:19:09.787Z,88.6
2018-10-18T04:19:50.208Z,88.22
2018-10-18T04:20:30.519Z,88.6
2018-10-18T04:21:10.946Z,88.89
2018-10-18T04:21:51.575Z,88.12
2018-10-18T04:22:31.929Z,88.12
2018-10-18T04:23:12.156Z,88.31
2018-10-18T04:24:10.305Z,88.51
2018-10-18T04:24:50.360Z,88.51
2018-10-18T04:25:31.306Z,88.79
2018-10-18T04:26:13.346Z,88.79
2018-10-18T04:26:52.948Z,88.6
2018-10-18T04:27:33.439Z,88.51
2018-10-18T05:06:44.296Z,97.18
2018-10-18T05:07:30.117Z,97.38
2018-10-18T05:08:19.325Z,97.28
2018-10-18T05:09:06.107Z,96.89
2018-10-18T05:09:46.087Z,97.38
2018-10-18T05:10:27.770Z,97.28
2018-10-18T05:11:08.139Z,98.05
2018-10-18T05:11:48.704Z,97.38
2018-10-18T05:12:29.187Z,97.85
2018-10-18T05:13:09.810Z,97.85
2018-10-18T05:13:51.370Z,97.66
2018-10-18T05:14:31.767Z,97.09
2018-10-18T05:15:12.318Z,97.56
2018-10-18T05:15:52.713Z,97.56
2018-10-18T05:16:33.049Z,97.47
2018-10-18T05:17:13.504Z,97.42
2018-10-18T05:17:54.162Z,96.84
2018-10-18T05:18:34.636Z,96.75
2018-10-18T05:19:18.638Z,96.27
2018-10-18T05:20:00.174Z,95.89
2018-10-18T05:20:40.373Z,96.08
2018-10-18T05:21:20.905Z,95.41
2018-10-18T05:22:01.230Z,95.51
2018-10-18T05:22:44.489Z,95.31
2018-10-18T05:23:26.503Z,95.41
2018-10-18T05:24:07.728Z,95.22
2018-10-18T05:24:48.387Z,95.22
2018-10-18T05:25:29.517Z,95.41
2018-10-18T05:30:08.235Z,95.22
2018-10-18T05:31:00.937Z,94.55
2018-10-18T05:31:52.583Z,93.73
2018-10-18T05:32:45.442Z,93.16
2018-10-18T05:33:37.826Z,93.35
2018-10-18T05:34:30.394Z,92.68
2018-10-18T05:35:22.236Z,92.3
2018-10-18T05:36:14.429Z,92.58
2018-10-18T05:37:08.442Z,92.49
2018-10-18T05:38:03.270Z,91.72
2018-10-18T05:38:55.681Z,91.72
2018-10-18T05:39:54.921Z,91.53
2018-10-18T05:40:59.770Z,90.76
2018-10-18T05:41:59.813Z,90.81
2018-10-18T05:42:52.820Z,90.52
2018-10-18T05:43:45.490Z,90.61
2018-10-18T05:44:37.899Z,90.71
2018-10-18T05:45:30.260Z,90.9
2018-10-18T05:46:22.681Z,90.9
2018-10-18T05:47:15.079Z,90.33
2018-10-18T05:48:07.654Z,91
2018-10-18T05:49:00.348Z,90.14
2018-10-18T05:49:53.801Z,89.94
2018-10-18T05:52:29.613Z,89.18
2018-10-18T05:53:22.071Z,89.27
2018-10-18T05:54:17.013Z,88.98
2018-10-18T05:55:10.713Z,88.7
2018-10-18T05:56:02.978Z,88.79
2018-10-18T05:56:56.481Z,88.41
2018-10-18T05:57:51.302Z,88.6
2018-10-18T05:58:51.163Z,88.79
2018-10-18T05:59:55.688Z,88.98
2018-10-18T06:00:54.610Z,88.98
2018-10-18T06:01:47.473Z,88.79
2018-10-18T06:02:47.070Z,88.79
2018-10-18T06:03:39.371Z,88.51
2018-10-18T06:04:31.920Z,88.93
2018-10-18T06:05:24.553Z,88.45
2018-10-18T06:06:18.136Z,88.65
2018-10-18T06:07:12.415Z,88.51
2018-10-18T06:08:04.670Z,88.51
2018-10-18T06:08:57.046Z,88.84
2018-10-18T06:09:49.929Z,88.45
2018-10-18T06:10:43.679Z,88.93
2018-10-18T06:11:37.222Z,88.07
2018-10-18T06:12:29.661Z,88.93
2018-10-18T06:14:58.811Z,87.98
2018-10-18T06:15:51.026Z,87.98
2018-10-18T06:16:44.438Z,88.17
2018-10-18T06:17:39.721Z,87.78
2018-10-18T06:18:33.248Z,87.59
2018-10-18T06:19:26.210Z,87.88
2018-10-18T06:20:20.716Z,87.88
2018-10-18T06:21:14.851Z,87.59
2018-10-18T06:22:08.562Z,87.88
2018-10-18T06:23:02.805Z,87.3
2018-10-18T06:23:56.762Z,87.88
2018-10-18T06:24:51.131Z,87.59
2018-10-18T06:25:46.611Z,87.21
2018-10-18T06:26:40.994Z,87.4
2018-10-18T06:27:36.236Z,87.01
2018-10-18T06:28:28.615Z,87.01
2018-10-18T06:29:24.551Z,86.92
2018-10-18T06:30:18.007Z,86.44
2018-10-18T06:31:11.347Z,86.34
2018-10-18T06:32:03.824Z,86.25
2018-10-18T06:32:55.820Z,86.25
2018-10-18T06:33:48.401Z,86.34
2018-10-18T06:34:47.771Z,86.54
2018-10-18T06:35:44.661Z,86.25
2018-10-18T06:36:42.579Z,86.34
2018-10-18T06:37:38.804Z,86.44
2018-10-18T06:38:31.911Z,86.34
2018-10-18T06:39:29.509Z,86.54
2018-10-18T06:40:22.955Z,86.54
2018-10-18T06:41:19.190Z,86.25
2018-10-18T06:42:13.347Z,86.44
2018-10-18T06:43:05.654Z,86.25
2018-10-18T06:44:00.689Z,86.25
2018-10-18T06:44:53.269Z,86.25
2018-10-18T06:45:53.241Z,86.44
2018-10-18T06:46:46.936Z,85.96
2018-10-18T06:47:43.840Z,86.29
2018-10-18T06:48:36.211Z,85.33
2018-10-18T06:49:33.152Z,85.33
2018-10-18T06:50:26.655Z,85.14
2018-10-18T06:51:22.167Z,84.37
2018-10-18T06:52:16.513Z,84.56
2018-10-18T06:53:16.714Z,84.47
2018-10-18T06:54:13.211Z,84.27
2018-10-18T06:55:07.959Z,84.18
2018-10-18T06:56:00.327Z,83.8
2018-10-18T06:56:55.007Z,84.18
2018-10-18T06:57:50.098Z,83.6
2018-10-18T06:58:43.140Z,84.08
2018-10-18T06:59:37.688Z,84.12
2018-10-18T07:00:31.645Z,83.8
2018-10-18T07:01:24.768Z,83.31
2018-10-18T07:02:17.339Z,83.12
2018-10-18T07:03:11.651Z,83.51
2018-10-18T07:04:04.759Z,83.54
2018-10-18T07:05:01.170Z,83.31
2018-10-18T07:05:54.237Z,83.8
2018-10-18T07:06:49.318Z,84.18
2018-10-18T07:07:48.114Z,83.98
2018-10-18T07:08:41.546Z,83.98
2018-10-18T07:09:34.037Z,84.18
2018-10-18T07:10:26.715Z,84.08
2018-10-18T07:11:21.791Z,84.08
2018-10-18T07:12:20.279Z,84.08
2018-10-18T07:13:12.099Z,84.18
2018-10-18T07:14:06.028Z,84.27
2018-10-18T07:14:59.566Z,84.56
2018-10-18T07:38:03.143Z,82.01
2018-10-18T07:38:56.977Z,81.92
2018-10-18T07:39:49.772Z,82.2
2018-10-18T07:40:42.799Z,82.01
2018-10-18T07:41:36.592Z,82.87
2018-10-18T07:42:31.463Z,82.78
2018-10-18T07:43:23.535Z,82.97
2018-10-18T07:44:15.701Z,83.36
2018-10-18T07:45:08.774Z,83.36
2018-10-18T07:46:01.666Z,83.36
2018-10-18T07:46:54.341Z,83.54
2018-10-18T07:47:48.393Z,83.54
2018-10-18T07:48:47.481Z,83.36
2018-10-18T07:49:40.757Z,82.68
2018-10-18T07:52:13.729Z,82.3
2018-10-18T07:52:52.842Z,82.4
2018-10-18T07:53:33.257Z,82.49
2018-10-18T07:54:14.379Z,82.01
2018-10-18T07:54:56.016Z,81.72
2018-10-18T07:55:36.443Z,82.49
2018-10-18T07:56:16.882Z,81.57
2018-10-18T07:56:57.314Z,81.28
2018-10-18T07:57:37.783Z,81.48
2018-10-18T07:59:17.545Z,80.42
2018-10-18T07:59:57.930Z,80.13
2018-10-18T08:00:38.592Z,79.75
2018-10-18T08:01:18.994Z,79.6
2018-10-18T08:01:59.385Z,79.79
2018-10-18T08:02:42.923Z,79.5
2018-10-18T08:03:23.398Z,79.4
2018-10-18T08:04:04.464Z,79.02
2018-10-18T08:04:44.917Z,78.34
2018-10-18T08:05:25.733Z,77.81
2018-10-18T08:08:37.325Z,75.73
2018-10-18T08:10:34.640Z,75.24
2018-10-18T08:11:29.175Z,74.48
2018-10-18T08:12:28.279Z,74.19
2018-10-18T08:13:24.231Z,73.8
2018-10-18T08:14:19.880Z,73.9
2018-10-18T08:15:14.169Z,73.61
2018-10-18T08:16:06.754Z,73.51
2018-10-18T08:17:02.246Z,73.42
2018-10-18T08:17:55.224Z,73.71
2018-10-18T08:18:49.052Z,73.8
2018-10-18T08:19:44.012Z,73.71
2018-10-18T08:20:41.091Z,73.61
2018-10-18T08:21:35.129Z,73.46
2018-10-18T08:22:28.005Z,72.97
2018-10-18T08:23:24.119Z,73.07
2018-10-18T08:24:16.081Z,72.88
2018-10-18T08:25:08.692Z,72.68
2018-10-18T08:26:06.342Z,72.39
2018-10-18T08:27:07.529Z,72.68
2018-10-18T08:28:20.602Z,72.39
2018-10-18T08:30:07.711Z,72.68
2018-10-18T08:30:48.812Z,72.11
2018-10-18T08:31:29.433Z,72.88
2018-10-18T08:32:09.675Z,72.39
2018-10-18T08:32:50.083Z,72.39
2018-10-18T08:33:30.499Z,72.49
2018-10-18T08:35:30.661Z,72.3
2018-10-18T08:36:23.635Z,72.59
2018-10-18T08:37:17.001Z,72.3
2018-10-18T08:38:10.276Z,72.2
2018-10-18T08:39:03.997Z,72.2
2018-10-18T08:39:59.466Z,72.49
2018-10-18T08:41:04.347Z,72.3
2018-10-18T08:41:57.250Z,72.39
2018-10-18T08:42:50.176Z,72.17
2018-10-18T08:43:43.325Z,72.74
2018-10-18T08:44:35.718Z,73.22
2018-10-18T08:45:34.290Z,73.13
2018-10-18T08:46:28.445Z,73.42
2018-10-18T08:47:24.547Z,73.42
2018-10-18T08:48:18.289Z,73.42
2018-10-18T08:49:26.675Z,73.9
2018-10-18T08:50:23.368Z,73.8
2018-10-18T08:51:16.055Z,73.42
2018-10-18T08:52:10.608Z,73.32
2018-10-18T08:53:08.488Z,73.51
2018-10-18T08:54:00.517Z,73.32
2018-10-18T08:54:56.088Z,73.42
2018-10-18T08:55:50.096Z,73.71
2018-10-18T08:56:47.662Z,73.51
2018-10-18T08:57:42.437Z,73.61
2018-10-18T08:58:35.210Z,73.71
2018-10-18T08:59:29.256Z,73.42
2018-10-18T09:01:39.622Z,73.9
2018-10-18T09:02:47.766Z,74.38
2018-10-18T09:05:01.933Z,74.38
2018-10-18T09:05:59.171Z,74.15
2018-10-18T09:06:53.563Z,74.29
2018-10-18T09:07:48.156Z,74.38
2018-10-18T09:08:41.364Z,74.48
2018-10-18T09:09:35.257Z,74.09
2018-10-18T09:10:36.391Z,74.29
2018-10-18T09:11:29.190Z,74.29
2018-10-18T09:12:23.227Z,74.76
2018-10-18T09:13:19.941Z,74.29
2018-10-18T09:14:29.851Z,74.09
2018-10-18T09:15:33.805Z,74.38
2018-10-18T09:18:31.458Z,74.34
2018-10-18T09:19:32.930Z,74.82
2018-10-18T09:24:11.536Z,74.25
2018-10-18T09:27:47.567Z,74.34
2018-10-18T09:28:27.570Z,74.48
2018-10-18T09:29:09.511Z,74.34
2018-10-18T09:29:49.600Z,74.38
2018-10-18T09:30:32.836Z,74.25
2018-10-18T09:31:13.394Z,73.99
2018-10-18T09:31:54.448Z,73.86
2018-10-18T09:32:34.779Z,74.15
2018-10-18T09:33:15.378Z,73.96
2018-10-18T09:33:56.875Z,74.05
2018-10-18T09:34:36.905Z,73.96
2018-10-18T09:35:17.377Z,74.05
2018-10-18T09:35:58.826Z,74.05
2018-10-18T09:36:39.352Z,73.86
2018-10-18T09:37:19.161Z,74.05
2018-10-18T09:37:59.750Z,73.86
2018-10-18T09:38:40.485Z,74.05
2018-10-18T09:39:21.209Z,74.05
2018-10-18T09:40:02.022Z,74.05
2018-10-18T09:40:42.572Z,73.86
2018-10-18T09:41:23.014Z,74.73
2018-10-18T09:42:03.560Z,74.34
2018-10-18T09:42:44.005Z,74.38
2018-10-18T09:43:25.024Z,74.44
2018-10-18T09:44:05.699Z,74.73
2018-10-18T09:44:48.286Z,74.73
2018-10-18T09:45:29.288Z,74.76
2018-10-18T09:46:10.326Z,74.44
2018-10-18T09:46:50.752Z,74.86
2018-10-18T09:47:31.618Z,74.25
2018-10-18T09:48:12.348Z,74.54
2018-10-18T09:48:53.082Z,74.63
2018-10-18T09:49:34.116Z,74.34
2018-10-18T09:50:14.594Z,74.92
2018-10-18T09:50:55.265Z,75.11
2018-10-18T09:51:36.193Z,75.11
2018-10-18T09:52:16.974Z,74.82
2018-10-18T09:52:58.632Z,74.34
2018-10-18T09:53:40.160Z,74.25
2018-10-18T09:54:21.889Z,74.25
2018-10-18T09:55:02.343Z,74.05
2018-10-18T09:55:43.136Z,74.15
2018-10-18T09:56:23.462Z,74.25
2018-10-18T09:57:04.056Z,74.34
2018-10-18T09:57:44.494Z,73.86
2018-10-18T09:58:25.365Z,73.99
2018-10-18T09:59:07.861Z,73.99
2018-10-18T09:59:47.539Z,74.09
2018-10-18T10:00:28.052Z,73.32
2018-10-18T10:01:09.972Z,73.32
2018-10-18T10:01:50.833Z,73.61
2018-10-18T10:02:31.834Z,72.94
2018-10-18T10:03:12.148Z,73.42
2018-10-18T10:03:53.039Z,73.32
2018-10-18T10:04:33.532Z,73.51
2018-10-18T10:05:13.991Z,73.47
2018-10-18T10:05:55.323Z,73.19
2018-10-18T10:06:35.652Z,73.09
2018-10-18T10:07:17.695Z,73.67
2018-10-18T10:07:59.220Z,74.05
2018-10-18T10:08:41.336Z,73.86
2018-10-18T10:09:22.293Z,74.15
2018-10-18T10:10:03.174Z,73.86
2018-10-18T10:10:44.735Z,74.05
2018-10-18T10:11:26.352Z,73.77
2018-10-18T10:12:07.087Z,73.96
2018-10-18T10:12:48.869Z,74.15
2018-10-18T10:13:30.503Z,73.67
2018-10-18T10:14:12.178Z,73.67
2018-10-18T10:14:53.062Z,73.67
2018-10-18T10:15:33.760Z,73.67
2018-10-18T10:16:15.324Z,73.96
2018-10-18T10:16:55.241Z,74.25
2018-10-18T10:17:36.582Z,73.67
2018-10-18T10:18:17.347Z,73.38
2018-10-18T10:18:57.932Z,73.47
2018-10-18T10:19:38.824Z,74.05
2018-10-18T10:20:20.374Z,73.67
2018-10-18T10:21:00.695Z,74.05
2018-10-18T10:21:43.327Z,73.86
2018-10-18T10:22:23.432Z,73.47
2018-10-18T10:23:04.380Z,73.96
2018-10-18T10:23:45.488Z,74.05
2018-10-18T10:24:26.845Z,73.67
2018-10-18T10:25:07.467Z,73.28
2018-10-18T10:25:49.348Z,73.38
2018-10-18T10:26:30.772Z,73.19
2018-10-18T10:27:11.710Z,73.47
2018-10-18T10:27:52.831Z,73.28
2018-10-18T10:28:33.076Z,73
2018-10-18T10:29:14.748Z,73.47
2018-10-18T11:07:55.625Z,74.3
2018-10-18T11:08:34.808Z,73.83
2018-10-18T11:09:15.355Z,73.83
2018-10-18T11:09:56.081Z,73.83
2018-10-18T11:10:40.409Z,74.4
2018-10-18T11:11:20.793Z,73.92
2018-10-18T11:12:06.324Z,73.96
2018-10-18T11:12:45.775Z,73.67
2018-10-18T11:13:26.536Z,73.77
2018-10-18T11:14:08.211Z,74.15
2018-10-18T11:14:48.714Z,73.86
2018-10-18T11:15:33.237Z,73.67
2018-10-18T11:16:14.151Z,73.77
2018-10-18T11:16:55.706Z,73.38
2018-10-18T11:17:36.000Z,73.09
2018-10-18T11:18:18.065Z,73.09
2018-10-18T11:18:58.346Z,73
2018-10-18T11:19:38.968Z,72.61
2018-10-18T11:20:20.303Z,72.42
2018-10-18T11:21:02.503Z,72.61
2018-10-18T11:21:43.888Z,72.71
2018-10-18T11:22:25.191Z,72.26
2018-10-18T11:23:06.103Z,71.97
2018-10-18T11:23:47.170Z,71.69
2018-10-18T11:24:28.793Z,71.78
2018-10-18T11:25:10.002Z,71.69
2018-10-18T11:25:51.154Z,71.2
2018-10-18T11:26:31.528Z,71.2
2018-10-18T11:27:12.682Z,71.11
2018-10-18T11:27:54.089Z,70.43
2018-10-18T11:28:34.716Z,70.53
2018-10-18T11:29:16.281Z,70.09
2018-10-18T11:29:57.679Z,70.15
2018-10-18T11:30:39.009Z,70.18
2018-10-18T11:31:19.597Z,70.05
2018-10-18T11:32:00.418Z,69.89
2018-10-18T11:32:40.912Z,70.28
2018-10-18T11:33:21.763Z,70.18
2018-10-18T11:34:02.402Z,70.09
2018-10-18T11:34:44.491Z,69.6
2018-10-18T11:35:24.668Z,69.31
2018-10-18T11:36:05.750Z,69.51
2018-10-18T11:36:46.202Z,68.54
2018-10-18T11:37:28.727Z,68.84
2018-10-18T11:38:09.263Z,69.02
2018-10-18T11:38:50.431Z,68.96
2018-10-18T11:39:30.933Z,68.54
2018-10-18T11:40:12.837Z,68.93
2018-10-18T11:40:52.219Z,68.64
2018-10-18T11:41:33.029Z,68.93
2018-10-18T11:42:13.743Z,68.44
2018-10-18T11:42:55.001Z,68.84
2018-10-18T11:43:35.921Z,68.54
2018-10-18T11:44:18.033Z,69.22
2018-10-18T11:44:59.682Z,68.64
2018-10-18T11:45:39.134Z,69.12
2018-10-18T11:46:19.480Z,68.93
2018-10-18T11:47:00.659Z,68.58
2018-10-18T11:47:41.309Z,68.68
2018-10-18T11:48:21.295Z,68.19
2018-10-18T11:49:01.638Z,67.33
2018-10-18T11:49:43.018Z,66.94
2018-10-18T11:50:25.182Z,66.69
2018-10-18T11:51:06.146Z,66.39
2018-10-18T11:51:46.842Z,65.53
2018-10-18T11:52:26.703Z,64.79
2018-10-18T11:53:07.229Z,64.31
2018-10-18T11:53:48.328Z,63.73
2018-10-18T11:54:28.999Z,63.37
2018-10-18T11:55:12.639Z,63.09
2018-10-18T11:57:07.574Z,61.96
2018-10-18T11:58:00.539Z,61.47
2018-10-18T11:58:54.353Z,60.89
2018-10-18T11:59:47.464Z,60.54
2018-10-18T12:00:42.736Z,59.19
2018-10-18T12:01:42.300Z,58.64
2018-10-18T12:02:40.839Z,58.06
2018-10-18T12:03:32.873Z,57.09
2018-10-18T12:04:14.043Z,57.03
2018-10-18T12:04:55.537Z,57.03
2018-10-18T12:05:36.103Z,56.28
2018-10-18T12:06:16.490Z,56.18
2018-10-18T12:06:58.104Z,55.21
2018-10-18T12:07:38.144Z,55.02
2018-10-18T12:08:21.113Z,54.93
2018-10-18T12:09:02.653Z,54.63
2018-10-18T12:09:43.843Z,54.63
2018-10-18T12:10:25.325Z,54.63
2018-10-18T12:11:08.030Z,54.15
2018-10-18T12:11:47.043Z,53.59
2018-10-18T12:12:27.352Z,53.69
2018-10-18T12:13:08.085Z,53.02
2018-10-18T12:13:48.756Z,52.92
2018-10-18T12:14:29.387Z,52.44
2018-10-18T12:15:09.997Z,52.17
2018-10-18T12:15:50.736Z,51.76
2018-10-18T12:16:31.089Z,52.27
2018-10-18T12:17:11.626Z,52.36
2018-10-18T12:17:52.068Z,51.78
2018-10-18T12:18:32.705Z,51.88
2018-10-18T12:19:13.447Z,51.4
2018-10-18T12:19:53.753Z,50.52
2018-10-18T12:20:35.487Z,50.24
2018-10-18T12:21:20.062Z,50.94
2018-10-18T12:22:00.562Z,50.62
2018-10-18T12:22:41.238Z,50.94
2018-10-18T12:23:21.739Z,49.97
2018-10-18T12:24:02.355Z,49.97
2018-10-18T12:24:42.971Z,49.58
2018-10-18T12:25:24.068Z,49.39
2018-10-18T12:26:04.983Z,49.22
2018-10-18T12:26:47.017Z,48.71
2018-10-18T12:27:28.314Z,48.42
2018-10-18T12:28:09.032Z,47.77
2018-10-18T12:28:49.501Z,48.32
2018-10-18T12:29:29.912Z,48.52
2018-10-18T12:30:10.651Z,48.71
2018-10-18T12:30:54.296Z,48.61
2018-10-18T12:31:34.752Z,48.52
2018-10-18T12:32:15.349Z,48.81
2018-10-18T12:32:55.672Z,49
2018-10-18T12:33:36.299Z,49.17
2018-10-18T12:34:16.733Z,49.65
2018-10-18T12:34:57.324Z,49.46
2018-10-18T12:35:37.722Z,50.33
2018-10-18T12:36:18.313Z,49.65
2018-10-18T12:36:59.019Z,50.21
2018-10-18T12:37:39.853Z,50.7
2018-10-18T12:38:20.141Z,50.98
2018-10-18T12:39:01.032Z,51.15
2018-10-18T12:39:42.252Z,50.6
2018-10-18T12:40:22.699Z,50.79
2018-10-18T12:41:03.361Z,50.28
2018-10-18T12:41:43.853Z,50.67
2018-10-18T12:42:26.544Z,50.96
2018-10-18T12:43:07.077Z,50.57
2018-10-18T12:43:48.338Z,51.06
2018-10-18T12:44:28.674Z,50.86
2018-10-18T12:45:09.737Z,50.67
2018-10-18T12:45:50.397Z,50.86
2018-10-18T12:46:31.157Z,50.86
2018-10-18T12:47:21.990Z,51.35
2018-10-18T12:55:37.358Z,47.5
2018-10-18T12:56:37.252Z,47.31
2018-10-18T12:57:37.427Z,48.2
2018-10-18T12:58:28.896Z,47.24
2018-10-18T12:59:23.000Z,46.48
2018-10-18T13:00:18.239Z,46.67
2018-10-18T13:01:00.544Z,46.7
2018-10-18T13:01:42.360Z,45.83
2018-10-18T13:02:23.600Z,45.83
2018-10-18T13:03:04.051Z,45.34
2018-10-18T13:03:46.435Z,44.96
2018-10-18T13:04:26.381Z,44.3
2018-10-18T13:05:09.636Z,44.2
2018-10-18T13:05:55.411Z,44.2
2018-10-18T13:06:38.486Z,43.72
2018-10-18T13:07:18.551Z,43.72
2018-10-18T13:07:59.802Z,43.23
2018-10-18T13:08:40.360Z,43.52
2018-10-18T13:09:20.972Z,43.13
2018-10-18T13:10:01.713Z,43.33
2018-10-18T13:10:43.635Z,43.52
2018-10-18T13:11:28.112Z,43.04
2018-10-18T13:13:58.615Z,42.85
2018-10-18T13:14:53.914Z,42.85
2018-10-18T13:17:49.401Z,41.7
2018-10-18T13:18:32.830Z,41.8
2018-10-18T13:19:13.300Z,41.61
2018-10-18T13:19:53.811Z,41.63
2018-10-18T13:20:34.219Z,40.64
2018-10-18T13:21:14.812Z,40.34
2018-10-18T13:21:55.434Z,40.46
2018-10-18T13:22:37.442Z,39.69
2018-10-18T13:23:18.007Z,40.46
2018-10-18T13:23:58.755Z,41.63
2018-10-18T13:24:39.577Z,41.14
2018-10-18T13:25:22.324Z,41.14
2018-10-18T13:26:03.642Z,41.61
2018-10-18T13:26:45.579Z,41.8
2018-10-18T13:27:26.922Z,41.61
2018-10-18T13:28:07.353Z,41
2018-10-18T13:28:47.896Z,41.2
2018-10-18T13:29:28.299Z,41.1
2018-10-18T13:30:08.905Z,41.58
2018-10-18T13:30:49.300Z,41.56
2018-10-18T13:31:30.000Z,41.66
2018-10-18T13:32:10.432Z,41.66
2018-10-18T13:32:50.853Z,41.76
2018-10-18T13:33:31.353Z,41.95
2018-10-18T13:34:11.780Z,42.63
2018-10-18T13:34:52.177Z,41.83
2018-10-18T13:35:32.636Z,42.22
2018-10-18T13:36:13.218Z,43
2018-10-18T13:36:53.601Z,42.8
2018-10-18T13:37:34.054Z,42.71
2018-10-18T13:38:14.628Z,43
2018-10-18T13:38:56.362Z,43.09
2018-10-18T13:39:37.124Z,42.97
2018-10-18T13:40:17.574Z,43.27
2018-10-18T13:40:58.560Z,43.37
2018-10-18T13:41:38.989Z,43.75
2018-10-18T13:42:19.538Z,43.85
2018-10-18T13:42:59.809Z,43.75
2018-10-18T13:43:41.098Z,43.95
2018-10-18T13:44:21.520Z,43.95
2018-10-18T13:45:02.008Z,44.23
2018-10-18T13:45:42.403Z,44.53
2018-10-18T13:46:23.821Z,45.47
2018-10-18T13:47:04.634Z,44.7
2018-10-18T13:47:46.114Z,45.57
2018-10-18T13:48:26.642Z,45.28
2018-10-18T13:49:07.145Z,45.66
2018-10-18T13:49:47.573Z,45.57
2018-10-18T13:50:28.121Z,44.98
2018-10-18T13:51:08.597Z,44.4
2018-10-18T13:51:49.095Z,44.6
2018-10-18T13:52:29.676Z,43.92
2018-10-18T13:53:10.148Z,44.31
2018-10-18T13:53:50.668Z,44.02
2018-10-18T13:54:31.147Z,44.5
2018-10-18T13:55:11.597Z,44.31
2018-10-18T13:55:52.064Z,44.02
2018-10-18T13:56:33.180Z,44.13
2018-10-18T13:57:13.647Z,44.04
2018-10-18T13:57:54.087Z,44.13
2018-10-18T13:58:34.633Z,43.82
2018-10-18T13:59:15.152Z,44.04
2018-10-18T13:59:55.643Z,43.85
2018-10-18T14:00:36.132Z,43.85
2018-10-18T14:01:17.543Z,43.65
2018-10-18T14:01:58.152Z,43.55
2018-10-18T14:02:38.463Z,43.65
2018-10-18T14:03:18.896Z,43.75
2018-10-18T14:03:59.723Z,43.75
2018-10-18T14:04:40.384Z,44.13
2018-10-18T14:05:20.885Z,44.13
2018-10-18T14:06:01.302Z,44.6
2018-10-18T14:06:41.768Z,44.31
2018-10-18T14:07:23.840Z,44.12
2018-10-18T14:08:04.341Z,44.7
2018-10-18T14:08:45.005Z,44.57
2018-10-18T14:09:25.356Z,44.77
2018-10-18T14:10:06.281Z,44.77
2018-10-18T14:10:46.667Z,45.14
2018-10-18T14:11:27.472Z,45.42
2018-10-18T14:12:07.964Z,44.65
2018-10-18T14:12:48.435Z,45.33
2018-10-18T14:13:28.922Z,45.01
2018-10-18T14:14:09.690Z,45.72
2018-10-18T14:14:50.051Z,45.89